• Join FlightAware (Why Join?)
  • Login
  • US Flag 
07:40AM EDT


 

Airport Tracker/Info


-or-


 

Live Flight TrackerFlight Track Log ✈ N232CF ✈ 31-May-2013 ✈ KJAX - KMLB

Flight Track Log - Related Links

Times and Time Zones

All times are in EDT time to prevent confusion due to time zone crossing. See the N232CF flight status page for this flight to view local times or setup timezone preferences in your user account.

Time Position Orientation Groundspeed Altitude Reporting Facility
EDT Latitude Longitude Course Direction KTS MPH feet Rate Location/Type
09:08PM 30.4758 -81.6803 109° East 169 194 600  Level Jacksonville Center
09:09PM 30.4519 -81.5986 109° East 236 272 2,900 1,320 Climbing Jacksonville Center
09:11PM 30.4322 -81.5072 104° East 264 304 3,900 1,500 Climbing Jacksonville Center
09:12PM 30.3647 -81.4361 138° Southeast 298 343 6,800 2,520 Climbing Jacksonville Center
09:13PM 30.3014 -81.3864 146° Southeast 293 337 9,700 2,520 Climbing Jacksonville Center
09:14PM 30.2236 -81.3397 153° Southeast 293 337 11,900 2,340 Climbing Jacksonville Center
09:15PM 30.1294 -81.3194 169° South 320 368 14,400 2,040 Climbing Jacksonville Center
09:16PM 30.0269 -81.2925 167° South 353 406 16,000 780 Climbing Jacksonville Center
09:17PM 29.9139 -81.2656 168° South 390 449 16,000  Level Jacksonville Center
09:18PM 29.7944 -81.2364 168° South 428 493 16,000  Level Jacksonville Center
09:19PM 29.6981 -81.2117 167° South 445 512 16,000  Level Jacksonville Center
09:20PM 29.5661 -81.1806 168° South 445 512 16,000 -120 Level Jacksonville Center
09:21PM 29.4319 -81.1472 168° South 451 519 15,800 -420 Descending Jacksonville Center
09:22PM 29.3106 -81.1208 169° South 451 519 15,200 -420 Descending Jacksonville Center
09:23PM 29.1872 -81.1064 174° South 451 519 15,000 -120 Descending Jacksonville Center
09:24PM 29.0661 -81.0942 175° South 445 512 15,000 -300 Level Jacksonville Center
09:25PM 28.9428 -81.0869 177° South 445 512 14,500 -780 Descending Jacksonville Center
09:26PM 28.8236 -81.0750 175° South 440 506 13,500 -1,080 Descending Jacksonville Center
09:26PM 28.7833 -81.0667 170° South 427 491 13,100 -1,440 Descending Orlando TRACON
09:27PM 28.6833 -81.0667 180° South 346 398 11,600 -1,560 Descending Orlando TRACON
09:28PM 28.6000 -81.0333 161° South 310 357 10,200 -1,680 Descending Orlando TRACON
09:29PM 28.5167 -81.0167 170° South 287 330 8,500 -1,500 Descending Orlando TRACON
09:30PM 28.4500 -81.0000 168° South 280 322 7,200 -1,140 Descending Orlando TRACON
09:31PM 28.3667 -80.9833 170° South 273 314 6,300 -960 Descending Orlando TRACON
09:32PM 28.3000 -80.9667 168° South 266 306 5,300 -900 Descending Orlando TRACON
09:33PM 28.2167 -80.9500 170° South 260 299 4,500 -1,200 Descending Orlando TRACON
09:34PM 28.1667 -80.9167 150° Southeast 236 272 2,900 -1,200 Descending Orlando TRACON
09:35PM 28.1333 -80.8667 127° Southeast 222 255 2,100 -420 Descending Orlando TRACON
09:36PM 28.1000 -80.8167 127° Southeast 195 224 2,100 -300 Level Orlando TRACON
09:37PM 28.1000 -80.7500 90° East 153 176 1,600 -600 Descending Orlando TRACON
09:38PM 28.1000 -80.7167 90° East 121 139 1,000 -600 Descending Orlando TRACON
09:39PM 28.1000 -80.6833 90° East 122 140 400 -600 Descending Orlando TRACON
09:41PM 28.1028 -80.6453 126° Southeast  Level Estimated
09:48PM 28.1028 -80.6453 126° Southeast  Level Estimated
09:49PM 28.1028 -80.6453 126° Southeast  Level Estimated
09:50PM 28.1028 -80.6453 126° Southeast  Level Estimated